Time;durP1;ratioP1;P1;durP2;ratioP2;P2;SDS_P1;SDS_P2;PMS_P1;PMS_P2;Temp;Humidity;BMP_temperature;BMP_pressure;BME280_temperature;BME280_humidity;BME280_pressure;Samples;Min_cycle;Max_cycle;Signal;HPM_P1;HPM_P2
2022/05/30 00:01:24;1067873.00;3.56;1853.06;10062.00;0.03;18.06;;;;;14.60;1.00;;;;;;2277669;61;1003;-89
2022/05/30 00:03:51;891017.00;2.97;1540.35;62677.00;0.21;109.10;;;;;14.40;1.00;;;;;;2277313;61;1447;-90
2022/05/30 00:06:21;904421.00;3.01;1563.89;42776.00;0.14;74.69;;;;;14.70;1.00;;;;;;2280687;61;1679;-89
2022/05/30 00:26:32;894371.00;2.98;1546.24;0.00;0.00;0.62;;;;;13.70;1.00;;;;;;1611435;41;3458;-88
2022/05/30 00:32:05;544818.00;1.82;939.03;0.00;0.00;0.62;;;;;13.40;1.00;;;;;;2477583;55;3581;31
2022/05/30 02:01:46;277034.00;0.92;478.44;0.00;0.00;0.62;;;;;14.90;1.00;;;;;;2287294;61;1315;-89
2022/05/30 02:06:41;1012270.00;3.37;1754.22;0.00;0.00;0.62;;;;;14.10;1.00;;;;;;2286629;61;1301;-90
2022/05/30 03:01:22;616672.00;2.06;1063.02;0.00;0.00;0.62;;;;;10.70;1.00;;;;;;2388266;55;3580;-87
2022/05/30 03:23:53;845302.00;2.82;1460.25;80710.00;0.27;140.26;;;;;10.40;1.00;;;;;;2282460;61;1226;-91
2022/05/30 03:33:46;622350.00;2.07;1072.83;84816.00;0.28;147.36;;;;;9.50;1.00;;;;;;2323615;55;3535;-89
2022/05/30 03:43:39;598587.00;2.00;1031.78;94434.00;0.31;163.96;;;;;10.10;1.00;;;;;;2407110;40;3591;-88
2022/05/30 03:51:05;936525.00;3.12;1620.36;91056.00;0.30;158.13;;;;;10.50;1.00;;;;;;2000183;40;3339;-89
2022/05/30 04:01:02;1851170.00;6.17;3323.07;89870.00;0.30;156.08;;;;;11.00;1.00;;;;;;2286716;61;1886;-88
2022/05/30 04:03:29;933437.00;3.11;1614.92;103094.00;0.34;178.91;;;;;11.20;1.00;;;;;;2284890;61;1613;-90
2022/05/30 04:05:56;946713.00;3.16;1638.32;124605.00;0.42;216.03;;;;;11.70;1.00;;;;;;2280800;61;1017;-89
2022/05/30 05:01:01;239870.00;0.80;414.53;0.00;0.00;0.62;;;;;12.50;1.00;;;;;;2319762;55;3654;-88
2022/05/30 05:06:04;517779.00;1.73;892.44;20646.00;0.07;36.39;;;;;13.20;1.00;;;;;;2291022;60;1310;-90
2022/05/30 05:13:33;830358.00;2.77;1434.12;47663.00;0.16;83.14;;;;;14.10;1.00;;;;;;2299376;40;3523;-88
2022/05/30 05:16:02;788794.00;2.63;1361.59;86566.00;0.29;150.38;;;;;13.90;1.00;;;;;;2292362;60;983;-88
2022/05/30 05:18:28;671470.00;2.24;1157.80;73455.00;0.24;127.73;;;;;13.50;1.00;;;;;;2291866;60;1017;-90
2022/05/30 05:20:55;989156.00;3.30;1713.28;128523.00;0.43;222.78;;;;;13.80;1.00;;;;;;2292448;60;1984;-91
2022/05/30 05:23:22;634111.00;2.11;1093.16;58881.00;0.20;102.54;;;;;14.10;1.00;;;;;;2292954;60;1066;-88
2022/05/30 05:25:49;643978.00;2.15;1110.22;0.00;0.00;0.62;;;;;14.00;1.00;;;;;;2292935;60;1293;-88
2022/05/30 05:33:18;922945.00;3.08;1596.46;42484.00;0.14;74.19;;;;;15.00;1.00;;;;;;2286136;60;1418;-89
2022/05/30 05:40:44;779209.00;2.60;1344.89;16565.00;0.06;29.32;;;;;16.40;1.00;;;;;;2286352;60;1976;-90
2022/05/30 05:53:10;578014.00;1.93;996.27;51121.00;0.17;89.12;;;;;23.30;1.00;;;;;;2286090;60;1389;-90
2022/05/30 05:55:38;419712.00;1.40;723.70;21740.00;0.07;38.28;;;;;24.30;1.00;;;;;;2284471;60;1428;-88
2022/05/30 05:58:06;156379.00;0.52;270.80;0.00;0.00;0.62;;;;;24.70;1.00;;;;;;2284520;60;1531;-88
2022/05/30 06:00:34;562188.00;1.87;968.97;23172.00;0.08;40.76;;;;;24.90;1.00;;;;;;2284632;60;2017;-87
2022/05/30 06:05:31;431556.00;1.44;744.06;10323.00;0.03;18.51;;;;;25.90;1.00;;;;;;2286195;60;1419;-88
2022/05/30 06:08:00;188364.00;0.63;325.89;19716.00;0.07;34.78;;;;;26.00;1.00;;;;;;2284580;60;1136;-88
2022/05/30 06:10:29;171676.00;0.57;297.15;0.00;0.00;0.62;;;;;26.30;1.00;;;;;;2284632;60;1760;-87
2022/05/30 06:12:56;686106.00;2.29;1183.15;52319.00;0.17;91.20;;;;;26.30;1.00;;;;;;2284502;60;1667;-88
2022/05/30 06:15:24;1368968.00;4.56;2398.89;65415.00;0.22;113.84;;;;;25.30;1.00;;;;;;2284505;60;1666;-88
2022/05/30 06:17:51;928623.00;3.10;1606.45;100609.00;0.34;174.62;;;;;25.20;1.00;;;;;;2290505;39;3662;-88
2022/05/30 06:20:19;1549669.00;5.17;2736.93;84589.00;0.28;146.96;;;;;24.90;1.00;;;;;;2287702;55;3777;-89
2022/05/30 06:22:46;1025959.00;3.42;1778.50;218480.00;0.73;377.73;;;;;24.00;1.00;;;;;;2284683;60;1078;-90
2022/05/30 06:25:13;766653.00;2.56;1323.03;116940.00;0.39;202.80;;;;;24.50;1.00;;;;;;2290362;39;3638;-87
2022/05/30 06:27:43;117204736.00;390.68;65217204.00;80378.00;0.27;139.69;;;;;25.30;1.00;;;;;;2288704;60;1062;-88
2022/05/30 06:30:11;30257.00;0.10;53.03;0.00;0.00;0.62;;;;;26.20;1.00;;;;;;2288667;60;1024;-87
2022/05/30 06:32:38;96623.00;0.32;167.74;31069.00;0.10;54.43;;;;;26.30;1.00;;;;;;2288680;60;1314;-88
2022/05/30 06:35:06;55147.00;0.18;96.09;0.00;0.00;0.62;;;;;26.90;1.00;;;;;;2288571;60;1269;-86
2022/05/30 06:37:33;829903.00;2.77;1433.33;57376.00;0.19;99.94;;;;;27.70;1.00;;;;;;2288747;60;1065;-86
2022/05/30 06:40:00;190211.00;0.63;329.07;0.00;0.00;0.62;;;;;28.70;1.00;;;;;;2288496;60;2005;-87
2022/05/30 06:42:27;117226528.00;390.76;65253616.00;0.00;0.00;0.62;;;;;28.50;1.00;;;;;;2288525;60;1052;-86
2022/05/30 06:44:55;0.00;0.00;0.62;0.00;0.00;0.62;;;;;28.30;1.00;;;;;;2288649;60;1391;-87
2022/05/30 06:47:22;1354182.00;4.51;2371.61;118445.00;0.39;205.40;;;;;29.20;1.00;;;;;;2288719;60;1122;-86
2022/05/30 06:49:49;1232888.00;4.11;2149.80;71930.00;0.24;125.10;;;;;28.80;1.00;;;;;;2288658;60;1031;-87
2022/05/30 06:52:17;1409063.00;4.70;2473.14;101452.00;0.34;176.08;;;;;28.00;1.00;;;;;;2288611;60;1571;-85
2022/05/30 06:54:44;1233862.00;4.11;2151.56;105700.00;0.35;183.41;;;;;28.40;1.00;;;;;;2288633;60;1355;-86
2022/05/30 06:59:57;1210041.00;4.03;2108.39;128810.00;0.43;223.28;;;;;29.20;1.00;;;;;;2284583;60;1981;-86
2022/05/30 07:02:24;234972.00;0.78;406.10;74683.00;0.25;129.85;;;;;28.50;1.00;;;;;;2284468;60;1618;-89
2022/05/30 07:04:51;0.00;0.00;0.62;0.00;0.00;0.62;;;;;27.80;1.00;;;;;;2284532;60;1287;-86
2022/05/30 07:07:18;119908.00;0.40;207.92;8900.00;0.03;16.04;;;;;27.80;1.00;;;;;;2284514;60;1078;-86
2022/05/30 07:09:44;649403.00;2.16;1119.60;54892.00;0.18;95.65;;;;;28.50;1.00;;;;;;2284572;60;979;-88
2022/05/30 07:12:11;1174292.00;3.91;2043.81;117915.00;0.39;204.49;;;;;28.70;1.00;;;;;;2284548;60;1056;-87
2022/05/30 07:14:39;1119871.00;3.73;1946.00;163958.00;0.55;283.86;;;;;29.40;1.00;;;;;;2284353;60;1360;-88
2022/05/30 07:17:12;361005.00;1.20;622.78;135569.00;0.45;234.93;;;;;28.50;1.00;;;;;;2284428;60;2344;-87
2022/05/30 07:19:38;85060.00;0.28;147.78;0.00;0.00;0.62;;;;;28.30;1.00;;;;;;2284390;60;1093;-84
2022/05/30 07:22:06;41192.00;0.14;71.95;0.00;0.00;0.62;;;;;28.30;1.00;;;;;;2284414;60;2208;-87
2022/05/30 07:24:33;361047.00;1.20;622.85;37940.00;0.13;66.32;;;;;28.70;1.00;;;;;;2284394;60;1301;-87
2022/05/30 07:26:59;147784.00;0.49;255.99;0.00;0.00;0.62;;;;;28.00;1.00;;;;;;2284429;60;1547;-87
2022/05/30 07:29:28;1170658.00;3.90;2037.26;70149.00;0.23;122.02;;;;;27.90;1.00;;;;;;2284495;60;1110;-87
2022/05/30 07:31:59;888672.00;2.96;1536.23;126475.00;0.42;219.25;;;;;28.90;1.00;;;;;;2284474;60;1117;-86
2022/05/30 07:34:28;121453712.00;404.85;72577352.00;153135.00;0.51;265.21;;;;;28.80;1.00;;;;;;2284386;60;1478;-86
2022/05/30 07:36:55;336700.00;1.12;581.00;53801.00;0.18;93.76;;;;;28.20;1.00;;;;;;2284495;60;1174;-87
2022/05/30 07:39:22;157646.00;0.53;272.98;0.00;0.00;0.62;;;;;27.80;1.00;;;;;;2284456;60;1128;-84
2022/05/30 07:41:49;100045.00;0.33;173.65;0.00;0.00;0.62;;;;;28.80;1.00;;;;;;2284368;60;2015;-87
2022/05/30 07:44:16;667576.00;2.23;1151.06;26743.00;0.09;46.95;;;;;29.50;1.00;;;;;;2284294;60;1280;-85
2022/05/30 07:46:44;744025.00;2.48;1283.67;48644.00;0.16;84.84;;;;;29.60;1.00;;;;;;2284374;60;1125;-87
2022/05/30 07:49:12;238433.00;0.79;412.06;0.00;0.00;0.62;;;;;28.90;1.00;;;;;;2284394;60;1012;-87
2022/05/30 07:51:42;67334.00;0.22;117.15;0.00;0.00;0.62;;;;;28.40;1.00;;;;;;2284386;60;1112;-90
2022/05/30 07:54:09;57881.00;0.19;100.81;0.00;0.00;0.62;;;;;28.60;1.00;;;;;;2284182;60;1905;-87
2022/05/30 07:56:35;472982.00;1.58;815.32;0.00;0.00;0.62;;;;;28.70;1.00;;;;;;2284371;60;1378;-87
2022/05/30 07:59:02;320545.00;1.07;553.23;0.00;0.00;0.62;;;;;28.40;1.00;;;;;;2284322;60;1535;-88
2022/05/30 08:01:30;1371446.00;4.57;2403.47;102525.00;0.34;177.93;;;;;28.30;1.00;;;;;;2287692;60;2025;-87
2022/05/30 08:03:57;37702.00;0.13;65.91;0.00;0.00;0.62;;;;;28.10;1.00;;;;;;2286022;60;1462;-87
2022/05/30 08:06:26;884597.00;2.95;1529.08;18828.00;0.06;33.24;;;;;27.90;1.00;;;;;;2284142;60;1042;-88
2022/05/30 08:08:56;1583420.00;5.28;2801.09;190524.00;0.64;329.61;;;;;28.70;1.00;;;;;;2286734;60;1687;-87
2022/05/30 08:11:24;77284.00;0.26;134.35;0.00;0.00;0.62;;;;;28.70;1.00;;;;;;2288321;60;1041;-86
2022/05/30 08:13:52;66413.00;0.22;115.56;0.00;0.00;0.62;;;;;28.70;1.00;;;;;;2288371;60;1670;-86
2022/05/30 08:16:21;0.00;0.00;0.62;0.00;0.00;0.62;;;;;27.70;1.00;;;;;;2288319;60;1151;-86
2022/05/30 08:18:48;50296.00;0.17;87.70;0.00;0.00;0.62;;;;;26.70;1.00;;;;;;2288372;60;1582;-85
2022/05/30 08:21:15;14774.00;0.05;26.22;0.00;0.00;0.62;;;;;26.10;1.00;;;;;;2288365;60;1913;-82
2022/05/30 08:23:43;136455.00;0.45;236.46;7498.00;0.02;13.61;;;;;26.40;1.00;;;;;;2288327;60;1307;-85
2022/05/30 08:26:13;1633118.00;5.44;2896.20;142890.00;0.48;247.55;;;;;26.00;1.00;;;;;;2287954;60;1832;-85
2022/05/30 08:28:40;773261.00;2.58;1334.53;101797.00;0.34;176.67;;;;;24.90;1.00;;;;;;2287825;60;2010;-85
2022/05/30 08:31:08;543002.00;1.81;935.90;121673.00;0.41;210.97;;;;;25.10;1.00;;;;;;2287908;60;1373;-88
2022/05/30 08:33:35;918596.00;3.06;1588.80;76014.00;0.25;132.15;;;;;25.60;1.00;;;;;;2287712;60;1744;-87
2022/05/30 08:36:06;246223.00;0.82;425.45;76230.00;0.25;132.52;;;;;25.70;1.00;;;;;;2288246;60;1018;-86
2022/05/30 08:38:34;206627.00;0.69;357.33;77027.00;0.26;133.90;;;;;24.90;1.00;;;;;;2288298;60;1133;-88
2022/05/30 08:43:52;172719.00;0.58;298.95;78660.00;0.26;136.72;;;;;25.40;1.00;;;;;;2288247;60;1363;-87
2022/05/30 08:46:34;213344.00;0.71;368.89;63836.00;0.21;111.11;;;;;26.10;1.00;;;;;;2288333;60;1061;-84
2022/05/30 08:49:13;413419.00;1.38;712.88;90370.00;0.30;156.95;;;;;26.40;1.00;;;;;;2288315;60;1142;-84
2022/05/30 08:52:11;352478.00;1.17;608.12;91471.00;0.30;158.85;;;;;26.40;1.00;;;;;;2288303;60;1827;-87
2022/05/30 08:54:50;675010.00;2.25;1163.93;101444.00;0.34;176.06;;;;;26.80;1.00;;;;;;2288081;60;1613;-87
2022/05/30 08:57:28;677867.00;2.26;1168.88;13878.00;0.05;24.67;;;;;25.30;1.00;;;;;;2288819;60;1572;-85
2022/05/30 09:00:09;620581.00;2.07;1069.77;111450.00;0.37;193.33;;;;;24.70;1.00;;;;;;2288999;60;1128;-87
2022/05/30 09:02:43;1197608.00;3.99;2085.90;70363.00;0.23;122.39;;;;;25.30;1.00;;;;;;2288947;60;1996;-86
2022/05/30 09:05:17;682393.00;2.27;1176.72;88403.00;0.29;153.55;;;;;25.90;1.00;;;;;;2288898;60;1454;-86
2022/05/30 09:07:50;987639.00;3.29;1710.59;99594.00;0.33;172.87;;;;;25.90;1.00;;;;;;2288946;60;1352;-85
2022/05/30 09:10:23;1195007.00;3.98;2081.20;58608.00;0.20;102.07;;;;;26.30;1.00;;;;;;2288885;60;1050;-86
2022/05/30 09:12:59;915935.00;3.05;1584.12;114839.00;0.38;199.18;;;;;25.60;1.00;;;;;;2288534;60;1125;-84
2022/05/30 09:15:34;219287.00;0.73;379.12;81215.00;0.27;141.14;;;;;25.50;1.00;;;;;;2288757;60;1413;-82
2022/05/30 09:18:06;348004.00;1.16;600.43;74857.00;0.25;130.15;;;;;25.80;1.00;;;;;;2288957;60;1056;-84
2022/05/30 09:20:34;303439.00;1.01;523.83;77319.00;0.26;134.41;;;;;24.60;1.00;;;;;;2288730;60;1915;-85
2022/05/30 09:23:03;326498.00;1.09;563.47;80262.00;0.27;139.49;;;;;24.20;1.00;;;;;;2288611;60;1131;-83
2022/05/30 09:26:00;119596272.00;398.65;69295224.00;75848.00;0.25;131.86;;;;;24.00;1.00;;;;;;2288065;60;1380;-83
2022/05/30 09:28:30;1041250.00;3.47;1805.67;100164.00;0.33;173.85;;;;;23.80;1.00;;;;;;2288613;60;1028;-83
2022/05/30 09:31:13;982551.00;3.28;1701.59;99691.00;0.33;173.04;;;;;23.20;1.00;;;;;;2288711;60;1090;-86
2022/05/30 09:33:44;1271697.00;4.24;2220.40;203384.00;0.68;351.75;;;;;23.20;1.00;;;;;;2288558;60;1607;-85
2022/05/30 09:36:15;483505.00;1.61;833.43;147716.00;0.49;255.87;;;;;23.40;1.00;;;;;;2288806;60;1111;-84
2022/05/30 09:38:43;31811.00;0.11;55.72;0.00;0.00;0.62;;;;;23.80;1.00;;;;;;2288777;60;1159;-85
2022/05/30 09:41:18;111169.00;0.37;192.85;0.00;0.00;0.62;;;;;23.80;1.00;;;;;;2288667;60;1996;-87
2022/05/30 09:43:50;98744.00;0.33;171.40;0.00;0.00;0.62;;;;;22.50;1.00;;;;;;2288794;60;1420;-87
2022/05/30 09:46:33;35891.00;0.12;62.78;0.00;0.00;0.62;;;;;22.90;1.00;;;;;;2288768;60;1672;-86
2022/05/30 09:49:04;24027.00;0.08;42.24;0.00;0.00;0.62;;;;;23.10;1.00;;;;;;2288875;60;884;-85
2022/05/30 09:51:36;74967.00;0.25;130.34;0.00;0.00;0.62;;;;;23.20;1.00;;;;;;2288950;60;1056;-88
2022/05/30 09:54:04;38576.00;0.13;67.42;0.00;0.00;0.62;;;;;22.80;1.00;;;;;;2288779;60;1329;-86
2022/05/30 09:56:38;28068.00;0.09;49.24;0.00;0.00;0.62;;;;;22.80;1.00;;;;;;2288873;60;802;-87
2022/05/30 09:59:08;1415707.00;4.72;2485.49;144906.00;0.48;251.03;;;;;22.30;1.00;;;;;;2284925;60;1271;-87
2022/05/30 10:01:38;16193.00;0.05;28.68;0.00;0.00;0.62;;;;;21.90;1.00;;;;;;2291427;39;3616;-85
2022/05/30 10:04:18;16836.00;0.06;29.79;0.00;0.00;0.62;;;;;21.70;1.00;;;;;;2288794;60;1478;-85
2022/05/30 10:07:07;25349.00;0.08;44.53;0.00;0.00;0.62;;;;;21.20;1.00;;;;;;2288451;60;960;-86
2022/05/30 10:09:35;125587.00;0.42;217.72;0.00;0.00;0.62;;;;;21.60;1.00;;;;;;2288771;60;1136;-87
2022/05/30 10:12:02;34746.00;0.12;60.80;0.00;0.00;0.62;;;;;22.20;1.00;;;;;;2288880;60;1137;-84
2022/05/30 10:14:32;73422.00;0.24;127.67;0.00;0.00;0.62;;;;;22.80;1.00;;;;;;2288754;60;1394;-87
2022/05/30 10:17:12;85040.00;0.28;147.74;0.00;0.00;0.62;;;;;22.80;1.00;;;;;;2288829;60;1108;-87
2022/05/30 10:19:42;69585.00;0.23;121.04;0.00;0.00;0.62;;;;;22.90;1.00;;;;;;2288872;60;1020;-87
2022/05/30 10:28:42;130863.00;0.44;226.82;0.00;0.00;0.62;;;;;21.90;1.00;;;;;;2288836;60;625;-86
2022/05/30 10:31:25;65132.00;0.22;113.35;0.00;0.00;0.62;;;;;22.60;1.00;;;;;;2288197;60;1151;-86
2022/05/30 10:34:26;173972.00;0.58;301.11;15861.00;0.05;28.10;;;;;22.30;1.00;;;;;;2288759;60;1414;-86
2022/05/30 10:37:09;249372.00;0.83;430.87;79816.00;0.27;138.72;;;;;21.20;1.00;;;;;;2288676;60;1183;-87
2022/05/30 10:40:01;218636.00;0.73;378.00;79903.00;0.27;138.87;;;;;21.10;1.00;;;;;;2288677;60;1046;-87
2022/05/30 10:42:35;210734.00;0.70;364.40;81161.00;0.27;141.04;;;;;21.30;1.00;;;;;;2288720;60;1911;-86
2022/05/30 10:45:10;160284.00;0.53;277.53;0.00;0.00;0.62;;;;;21.90;1.00;;;;;;2288727;60;1370;-86
2022/05/30 10:47:39;41924.00;0.14;73.22;0.00;0.00;0.62;;;;;22.00;1.00;;;;;;2297588;39;3646;-86
2022/05/30 10:50:16;0.00;0.00;0.62;0.00;0.00;0.62;;;;;22.10;1.00;;;;;;2284637;60;1042;-88
2022/05/30 10:52:49;70722.00;0.24;123.01;0.00;0.00;0.62;;;;;22.00;1.00;;;;;;2284623;60;1613;-86
2022/05/30 10:55:21;72836.00;0.24;126.66;0.00;0.00;0.62;;;;;21.60;1.00;;;;;;2284588;60;1466;-86
2022/05/30 10:57:53;27271.00;0.09;47.86;0.00;0.00;0.62;;;;;21.40;1.00;;;;;;2284555;60;1617;-86
2022/05/30 11:00:23;129729.00;0.43;224.86;0.00;0.00;0.62;;;;;21.50;1.00;;;;;;2284625;60;1117;-86
2022/05/30 11:03:00;77450.00;0.26;134.63;0.00;0.00;0.62;;;;;21.90;1.00;;;;;;2284599;60;1996;-87
2022/05/30 11:05:35;0.00;0.00;0.62;0.00;0.00;0.62;;;;;21.80;1.00;;;;;;2284589;60;1501;-87
2022/05/30 11:08:11;119298.00;0.40;206.87;0.00;0.00;0.62;;;;;21.90;1.00;;;;;;2284569;60;1130;-86
2022/05/30 11:10:49;0.00;0.00;0.62;0.00;0.00;0.62;;;;;22.00;1.00;;;;;;2284535;60;1283;-85
2022/05/30 11:13:34;53612.00;0.18;93.43;0.00;0.00;0.62;;;;;22.20;1.00;;;;;;2284635;60;1031;-87
2022/05/30 11:16:05;111470.00;0.37;193.37;0.00;0.00;0.62;;;;;22.30;1.00;;;;;;2284549;60;1066;-88
2022/05/30 11:18:42;66231.00;0.22;115.25;0.00;0.00;0.62;;;;;22.20;1.00;;;;;;2284163;60;1064;-82
2022/05/30 11:21:20;0.00;0.00;0.62;0.00;0.00;0.62;;;;;21.90;1.00;;;;;;2284594;60;1917;-87
2022/05/30 11:23:48;72224.00;0.24;125.60;0.00;0.00;0.62;;;;;22.30;1.00;;;;;;2284585;60;1467;-86
2022/05/30 11:27:05;88189.00;0.29;153.18;0.00;0.00;0.62;;;;;22.60;1.00;;;;;;2284584;60;995;-87
2022/05/30 11:29:53;48938.00;0.16;85.35;0.00;0.00;0.62;;;;;22.00;1.00;;;;;;2263844;61;962;-86
2022/05/30 11:32:41;48025.00;0.16;83.77;0.00;0.00;0.62;;;;;22.10;1.00;;;;;;2290449;55;3771;-86
2022/05/30 11:35:26;41653.00;0.14;72.75;0.00;0.00;0.62;;;;;22.60;1.00;;;;;;2288547;60;2248;-87
2022/05/30 11:38:15;0.00;0.00;0.62;0.00;0.00;0.62;;;;;21.90;1.00;;;;;;2288537;60;1057;-87
2022/05/30 11:40:51;72520.00;0.24;126.11;0.00;0.00;0.62;;;;;21.80;1.00;;;;;;2288692;60;1177;-86
2022/05/30 11:43:37;66517.00;0.22;115.74;0.00;0.00;0.62;;;;;21.70;1.00;;;;;;2288566;60;1990;-86
2022/05/30 11:46:14;0.00;0.00;0.62;0.00;0.00;0.62;;;;;21.90;1.00;;;;;;2288568;60;1034;-87
2022/05/30 11:48:51;37929.00;0.13;66.31;0.00;0.00;0.62;;;;;21.80;1.00;;;;;;2288558;60;1738;-84
2022/05/30 11:51:29;7126.00;0.02;12.97;0.00;0.00;0.62;;;;;22.60;1.00;;;;;;2288519;60;1136;-87
2022/05/30 11:54:20;0.00;0.00;0.62;0.00;0.00;0.62;;;;;23.10;1.00;;;;;;2288508;60;2377;-87
2022/05/30 11:56:58;47993.00;0.16;83.72;0.00;0.00;0.62;;;;;23.40;1.00;;;;;;2287040;60;1087;-89
2022/05/30 11:59:52;43814.00;0.15;76.49;0.00;0.00;0.62;;;;;23.20;1.00;;;;;;2288494;60;1144;-88
2022/05/30 12:02:25;346716.00;1.16;598.22;3355.00;0.01;6.43;;;;;23.10;1.00;;;;;;2287950;60;1921;-87
2022/05/30 12:05:16;29084.00;0.10;51.00;0.00;0.00;0.62;;;;;23.30;1.00;;;;;;2288483;60;2198;-87
2022/05/30 12:08:15;318.00;0.00;1.17;0.00;0.00;0.62;;;;;22.90;1.00;;;;;;2288555;60;987;-88
2022/05/30 12:11:06;151488.00;0.50;262.37;16141.00;0.05;28.59;;;;;23.10;1.00;;;;;;2285735;60;1468;-88
2022/05/30 12:13:55;0.00;0.00;0.62;0.00;0.00;0.62;;;;;23.40;1.00;;;;;;2288386;60;1410;-87
2022/05/30 12:16:40;91222.00;0.30;158.42;0.00;0.00;0.62;;;;;23.10;1.00;;;;;;2288357;60;983;-87
2022/05/30 12:25:43;152430.00;0.51;264.00;12633.00;0.04;22.51;;;;;22.90;1.00;;;;;;2288467;60;1333;-89
2022/05/30 12:28:55;91747.00;0.31;159.32;0.00;0.00;0.62;;;;;23.10;1.00;;;;;;2288410;60;1194;-88
2022/05/30 12:31:40;246715.00;0.82;426.30;0.00;0.00;0.62;;;;;23.20;1.00;;;;;;2288996;60;2164;-89
2022/05/30 12:34:07;196481.00;0.65;339.87;75998.00;0.25;132.12;;;;;23.60;1.00;;;;;;2289100;60;1431;-88
2022/05/30 12:36:40;73874.00;0.25;128.45;0.00;0.00;0.62;;;;;23.80;1.00;;;;;;2289122;60;1097;-88
2022/05/30 12:39:25;220691.00;0.74;381.53;0.00;0.00;0.62;;;;;23.60;1.00;;;;;;2296970;56;3766;-86
2022/05/30 12:41:58;19761.00;0.07;34.86;0.00;0.00;0.62;;;;;23.10;1.00;;;;;;2289671;60;2004;-88
2022/05/30 12:44:48;82050.00;0.27;142.58;0.00;0.00;0.62;;;;;23.00;1.00;;;;;;2288951;60;1680;-88
2022/05/30 12:47:18;217648.00;0.73;376.30;62240.00;0.21;108.35;;;;;22.70;1.00;;;;;;2289202;60;1029;-88
2022/05/30 12:49:50;13628.00;0.05;24.23;0.00;0.00;0.62;;;;;23.00;1.00;;;;;;2289032;60;1674;-85
2022/05/30 12:52:18;33486.00;0.11;58.62;0.00;0.00;0.62;;;;;23.20;1.00;;;;;;2289162;60;1014;-86
2022/05/30 12:55:01;65526.00;0.22;114.03;0.00;0.00;0.62;;;;;23.30;1.00;;;;;;2288934;60;1362;-84
2022/05/30 12:57:39;20277.00;0.07;35.75;0.00;0.00;0.62;;;;;23.40;1.00;;;;;;2288991;60;1915;-85
2022/05/30 13:00:29;168209.00;0.56;291.18;0.00;0.00;0.62;;;;;23.30;1.00;;;;;;2289075;60;1085;-86
2022/05/30 13:03:11;0.00;0.00;0.62;0.00;0.00;0.62;;;;;23.20;1.00;;;;;;2286393;60;1925;-83
2022/05/30 13:05:58;554572.00;1.85;955.84;15956.00;0.05;28.27;;;;;23.10;1.00;;;;;;2289031;60;2266;-86
2022/05/30 13:09:04;947374.00;3.16;1639.48;46577.00;0.16;81.27;;;;;23.00;1.00;;;;;;2289087;60;1705;-86
2022/05/30 13:11:58;88106.00;0.29;153.04;0.00;0.00;0.62;;;;;23.00;1.00;;;;;;2289045;60;1077;-85
2022/05/30 13:14:44;33995.00;0.11;59.50;0.00;0.00;0.62;;;;;23.20;1.00;;;;;;2289079;60;1433;-88
2022/05/30 13:17:28;0.00;0.00;0.62;0.00;0.00;0.62;;;;;23.00;1.00;;;;;;2289005;60;1766;-85
2022/05/30 13:20:05;99447.00;0.33;172.62;33572.00;0.11;58.77;;;;;22.30;1.00;;;;;;2289075;60;1136;-85
2022/05/30 13:22:36;0.00;0.00;0.62;0.00;0.00;0.62;;;;;22.00;1.00;;;;;;2288941;60;1919;-84
2022/05/30 13:25:04;78294.00;0.26;136.09;0.00;0.00;0.62;;;;;22.50;1.00;;;;;;2288968;60;1451;-84
2022/05/30 13:27:31;0.00;0.00;0.62;0.00;0.00;0.62;;;;;22.80;1.00;;;;;;2288989;60;1569;-85
2022/05/30 13:30:03;390186.00;1.30;672.93;134734.00;0.45;233.49;;;;;22.60;1.00;;;;;;2289101;60;1009;-85
2022/05/30 13:32:33;175876.00;0.59;304.39;0.00;0.00;0.62;;;;;22.20;1.00;;;;;;2288926;60;1189;-84
2022/05/30 13:35:07;0.00;0.00;0.62;0.00;0.00;0.62;;;;;21.70;1.00;;;;;;2288634;60;1457;-85
2022/05/30 13:37:38;0.00;0.00;0.62;0.00;0.00;0.62;;;;;21.80;1.00;;;;;;2288902;60;1059;-84
2022/05/30 13:40:08;102532.00;0.34;177.94;36794.00;0.12;64.34;;;;;22.00;1.00;;;;;;2288843;60;1126;-83
2022/05/30 13:42:49;0.00;0.00;0.62;0.00;0.00;0.62;;;;;22.40;1.00;;;;;;2288665;60;1927;-83
2022/05/30 13:45:18;0.00;0.00;0.62;0.00;0.00;0.62;;;;;22.50;1.00;;;;;;2288835;60;1350;-83
2022/05/30 13:47:47;394232.00;1.31;679.89;46941.00;0.16;81.90;;;;;22.20;1.00;;;;;;2288796;60;1171;-84
2022/05/30 13:50:17;0.00;0.00;0.62;0.00;0.00;0.62;;;;;22.50;1.00;;;;;;2288897;60;1133;-83
2022/05/30 13:52:46;248084.00;0.83;428.66;116064.00;0.39;201.29;;;;;22.60;1.00;;;;;;2288885;60;1140;-82
2022/05/30 13:55:22;29317.00;0.10;51.40;0.00;0.00;0.62;;;;;21.90;1.00;;;;;;2288726;60;1295;-83
2022/05/30 13:57:50;0.00;0.00;0.62;0.00;0.00;0.62;;;;;21.80;1.00;;;;;;2288824;60;1132;-86
2022/05/30 14:00:25;80099.00;0.27;139.21;0.00;0.00;0.62;;;;;22.20;1.00;;;;;;2288642;60;1672;-85
2022/05/30 14:02:53;166162.00;0.55;287.66;0.00;0.00;0.62;;;;;22.50;1.00;;;;;;2288805;60;1986;-85
2022/05/30 14:05:36;0.00;0.00;0.62;0.00;0.00;0.62;;;;;22.70;1.00;;;;;;2288825;60;1362;-84
2022/05/30 14:08:07;37685.00;0.13;65.88;0.00;0.00;0.62;;;;;23.10;1.00;;;;;;2288857;60;1149;-86
2022/05/30 14:10:40;153349.00;0.51;265.58;0.00;0.00;0.62;;;;;22.80;1.00;;;;;;2288874;60;1096;-85
2022/05/30 14:13:19;0.00;0.00;0.62;0.00;0.00;0.62;;;;;22.60;1.00;;;;;;2288859;60;1123;-84
2022/05/30 14:15:54;225039.00;0.75;389.01;0.00;0.00;0.62;;;;;23.10;1.00;;;;;;2288825;60;1435;-86
2022/05/30 14:18:27;1184998.00;3.95;2063.12;78201.00;0.26;135.93;;;;;23.50;1.00;;;;;;2288713;60;983;-87
2022/05/30 14:20:56;1376585.00;4.59;2412.97;152529.00;0.51;264.17;;;;;23.90;1.00;;;;;;2288663;60;1041;-86
2022/05/30 14:23:24;515070.00;1.72;887.77;140720.00;0.47;243.81;;;;;24.40;1.00;;;;;;2288758;60;2014;-87
2022/05/30 14:25:54;392147.00;1.31;676.31;79973.00;0.27;138.99;;;;;24.10;1.00;;;;;;2288761;60;1254;-87
2022/05/30 14:28:27;170628.00;0.57;295.35;84086.00;0.28;146.09;;;;;24.10;1.00;;;;;;2288819;60;955;-87
2022/05/30 14:30:55;168642.00;0.56;291.93;81568.00;0.27;141.75;;;;;24.10;1.00;;;;;;2288796;60;1130;-87
2022/05/30 14:33:33;204308.00;0.68;353.34;0.00;0.00;0.62;;;;;24.10;1.00;;;;;;2288744;60;1058;-86
2022/05/30 14:36:25;0.00;0.00;0.62;0.00;0.00;0.62;;;;;23.90;1.00;;;;;;2288729;60;1082;-86
2022/05/30 14:38:52;225525.00;0.75;389.85;81218.00;0.27;141.14;;;;;23.60;1.00;;;;;;2288781;60;1001;-86
2022/05/30 14:41:25;21015.00;0.07;37.03;0.00;0.00;0.62;;;;;23.40;1.00;;;;;;2288593;60;1026;-87
2022/05/30 14:43:55;55376.00;0.18;96.48;0.00;0.00;0.62;;;;;23.10;1.00;;;;;;2288628;60;1918;-87
2022/05/30 14:46:31;0.00;0.00;0.62;0.00;0.00;0.62;;;;;23.10;1.00;;;;;;2288699;60;978;-87
2022/05/30 14:49:01;181360.00;0.60;313.83;71525.00;0.24;124.40;;;;;23.00;1.00;;;;;;2288712;60;1076;-88
2022/05/30 14:51:32;50335.00;0.17;87.77;0.00;0.00;0.62;;;;;22.70;1.00;;;;;;2288655;60;1115;-86
2022/05/30 14:54:06;0.00;0.00;0.62;0.00;0.00;0.62;;;;;23.00;1.00;;;;;;2288426;60;1324;-85
2022/05/30 14:56:34;23054.00;0.08;40.56;0.00;0.00;0.62;;;;;23.00;1.00;;;;;;2288731;60;1543;-84
2022/05/30 14:59:02;121567.00;0.41;210.79;0.00;0.00;0.62;;;;;23.00;1.00;;;;;;2288731;60;1086;-85
2022/05/30 15:01:32;299538.00;1.00;517.13;89367.00;0.30;155.21;;;;;23.20;1.00;;;;;;2288680;60;1519;-86
2022/05/30 15:04:04;0.00;0.00;0.62;0.00;0.00;0.62;;;;;23.20;1.00;;;;;;2288696;60;1915;-85
2022/05/30 15:06:38;0.00;0.00;0.62;0.00;0.00;0.62;;;;;22.90;1.00;;;;;;2288703;60;1032;-86
2022/05/30 15:09:06;0.00;0.00;0.62;0.00;0.00;0.62;;;;;22.70;1.00;;;;;;2288754;60;987;-87
2022/05/30 15:11:34;0.00;0.00;0.62;0.00;0.00;0.62;;;;;22.40;1.00;;;;;;2288771;60;1032;-86
2022/05/30 15:14:04;26353.00;0.09;46.27;0.00;0.00;0.62;;;;;22.60;1.00;;;;;;2288711;60;1263;-86
2022/05/30 15:16:31;8464.00;0.03;15.29;0.00;0.00;0.62;;;;;22.70;1.00;;;;;;2288692;60;1125;-86
2022/05/30 15:19:00;96140.00;0.32;166.91;30022.00;0.10;52.62;;;;;22.60;1.00;;;;;;2288509;60;1084;-87
2022/05/30 15:21:32;86699.00;0.29;150.61;0.00;0.00;0.62;;;;;22.70;1.00;;;;;;2288625;60;1030;-85
2022/05/30 15:24:00;0.00;0.00;0.62;0.00;0.00;0.62;;;;;22.60;1.00;;;;;;2288656;60;1915;-86
2022/05/30 15:26:27;0.00;0.00;0.62;0.00;0.00;0.62;;;;;22.70;1.00;;;;;;2288705;60;1073;-86